CheckWX is a tool to help pilots better visualize weather data.  It is not intended as a substitute for an official pre-flight weather briefing.

05:50:38 UTC

KSRQ TAF
Sarasota / Bradenton International Airport
Sarasota/Bradenton, Florida, USA
KSRQ 280527Z 2806/2906 34005KT P6SM FEW030 FM281500 34009KT P6SM FEW030 SCT200 FM290000 31006KT P6SM SKC

Feb-28@
06:00 UTC

Feb-28 @ 06:00 UTC

Feb-28@
15:00 UTC

Feb-28 @ 15:00 UTC

KSRQ 280527Z 2806/2906 34005KT P6SM FEW030
Wind
  • 340° at 5 KTS
Cloud Levels
  • Few at 3,000' AGL

Feb-28@
15:00 UTC

Feb-28 @ 15:00 UTC

Feb-29@
00:00 UTC

Feb-29 @ 00:00 UTC

FM281500 34009KT P6SM FEW030 SCT200

From

From Standard forecast or significant change

Wind
  • 340° at 9 KTS
Cloud Levels
  • Few at 3,000' AGL
  • Scattered at 20,000' AGL

Feb-29@
00:00 UTC

Feb-29 @ 00:00 UTC

Feb-29@
06:00 UTC

Feb-29 @ 06:00 UTC

FM290000 31006KT P6SM SKC

From

From Standard forecast or significant change

Wind
  • 310° at 6 KTS
Cloud Levels
  • Clear skies